sensor_id;sensor_type;location;lat;lon;timestamp;temperature;humidity
31575;DHT22;18182;1.328;103.810;2023-02-08T00:00:44;28.10;99.90
31575;DHT22;18182;1.328;103.810;2023-02-08T00:03:10;28.10;99.90
31575;DHT22;18182;1.328;103.810;2023-02-08T00:05:36;28.10;99.90
31575;DHT22;18182;1.328;103.810;2023-02-08T00:08:02;28.10;99.90
31575;DHT22;18182;1.328;103.810;2023-02-08T00:10:29;28.10;99.90
31575;DHT22;18182;1.328;103.810;2023-02-08T00:12:55;28.10;99.90
31575;DHT22;18182;1.328;103.810;2023-02-08T00:15:21;28.10;99.90
31575;DHT22;18182;1.328;103.810;2023-02-08T00:17:47;28.10;99.90
31575;DHT22;18182;1.328;103.810;2023-02-08T00:20:13;28.20;99.90
31575;DHT22;18182;1.328;103.810;2023-02-08T00:22:40;28.30;99.90
31575;DHT22;18182;1.328;103.810;2023-02-08T00:25:06;28.30;99.90
31575;DHT22;18182;1.328;103.810;2023-02-08T00:27:32;28.30;99.90
31575;DHT22;18182;1.328;103.810;2023-02-08T00:29:59;28.30;99.90
31575;DHT22;18182;1.328;103.810;2023-02-08T00:32:25;28.30;99.90
31575;DHT22;18182;1.328;103.810;2023-02-08T00:34:51;28.30;99.90
31575;DHT22;18182;1.328;103.810;2023-02-08T00:37:17;28.30;99.90
31575;DHT22;18182;1.328;103.810;2023-02-08T00:39:43;28.20;99.90
31575;DHT22;18182;1.328;103.810;2023-02-08T00:42:09;28.20;99.90
31575;DHT22;18182;1.328;103.810;2023-02-08T00:44:36;28.10;99.90
31575;DHT22;18182;1.328;103.810;2023-02-08T00:47:02;28.20;99.90
31575;DHT22;18182;1.328;103.810;2023-02-08T00:49:28;28.20;99.90
31575;DHT22;18182;1.328;103.810;2023-02-08T00:51:54;28.30;99.90
31575;DHT22;18182;1.328;103.810;2023-02-08T00:54:20;28.30;99.90
31575;DHT22;18182;1.328;103.810;2023-02-08T00:56:46;28.30;99.90
31575;DHT22;18182;1.328;103.810;2023-02-08T00:59:12;28.30;99.90
31575;DHT22;18182;1.328;103.810;2023-02-08T01:01:39;28.30;99.90
31575;DHT22;18182;1.328;103.810;2023-02-08T01:04:05;28.30;99.90
31575;DHT22;18182;1.328;103.810;2023-02-08T01:06:32;28.30;99.90
31575;DHT22;18182;1.328;103.810;2023-02-08T01:08:58;28.30;99.90
31575;DHT22;18182;1.328;103.810;2023-02-08T01:11:24;28.40;99.90
31575;DHT22;18182;1.328;103.810;2023-02-08T01:13:51;28.50;99.90
31575;DHT22;18182;1.328;103.810;2023-02-08T01:16:23;28.50;99.90
31575;DHT22;18182;1.328;103.810;2023-02-08T01:18:50;28.50;99.90
31575;DHT22;18182;1.328;103.810;2023-02-08T01:21:18;28.60;99.90
31575;DHT22;18182;1.328;103.810;2023-02-08T01:23:44;28.60;99.90
31575;DHT22;18182;1.328;103.810;2023-02-08T01:26:11;28.70;99.90
31575;DHT22;18182;1.328;103.810;2023-02-08T01:28:38;28.60;99.90
31575;DHT22;18182;1.328;103.810;2023-02-08T01:31:09;28.60;99.90
31575;DHT22;18182;1.328;103.810;2023-02-08T01:33:36;28.60;99.90
31575;DHT22;18182;1.328;103.810;2023-02-08T01:36:03;28.60;99.90
31575;DHT22;18182;1.328;103.810;2023-02-08T01:38:29;28.60;99.90
31575;DHT22;18182;1.328;103.810;2023-02-08T01:40:56;28.70;99.90
31575;DHT22;18182;1.328;103.810;2023-02-08T01:43:29;28.80;99.90
31575;DHT22;18182;1.328;103.810;2023-02-08T01:45:56;28.90;99.90
31575;DHT22;18182;1.328;103.810;2023-02-08T01:48:24;29.00;99.90
31575;DHT22;18182;1.328;103.810;2023-02-08T01:50:53;29.10;99.90
31575;DHT22;18182;1.328;103.810;2023-02-08T01:53:20;29.30;99.90
31575;DHT22;18182;1.328;103.810;2023-02-08T01:55:48;29.30;99.90
31575;DHT22;18182;1.328;103.810;2023-02-08T01:58:15;29.40;99.90
31575;DHT22;18182;1.328;103.810;2023-02-08T02:00:42;29.50;99.90
31575;DHT22;18182;1.328;103.810;2023-02-08T02:03:08;29.50;99.90
31575;DHT22;18182;1.328;103.810;2023-02-08T02:05:37;29.60;99.90
31575;DHT22;18182;1.328;103.810;2023-02-08T02:08:04;29.70;99.90
31575;DHT22;18182;1.328;103.810;2023-02-08T02:10:32;29.90;99.90
31575;DHT22;18182;1.328;103.810;2023-02-08T02:13:11;30.00;99.90
31575;DHT22;18182;1.328;103.810;2023-02-08T02:15:37;30.10;99.90
31575;DHT22;18182;1.328;103.810;2023-02-08T02:18:04;30.10;99.90
31575;DHT22;18182;1.328;103.810;2023-02-08T02:20:44;30.20;99.90
31575;DHT22;18182;1.328;103.810;2023-02-08T02:28:49;30.40;99.90
31575;DHT22;18182;1.328;103.810;2023-02-08T02:36:46;31.00;99.90
31575;DHT22;18182;1.328;103.810;2023-02-08T02:49:53;31.40;99.90
31575;DHT22;18182;1.328;103.810;2023-02-08T02:52:40;31.50;99.90
31575;DHT22;18182;1.328;103.810;2023-02-08T02:55:09;31.60;99.90
31575;DHT22;18182;1.328;103.810;2023-02-08T02:57:37;31.60;99.90
31575;DHT22;18182;1.328;103.810;2023-02-08T03:00:06;31.60;99.90
31575;DHT22;18182;1.328;103.810;2023-02-08T03:02:33;31.60;99.90
31575;DHT22;18182;1.328;103.810;2023-02-08T03:04:59;31.60;99.90
31575;DHT22;18182;1.328;103.810;2023-02-08T03:07:30;31.70;99.90
31575;DHT22;18182;1.328;103.810;2023-02-08T03:10:12;31.80;99.90
31575;DHT22;18182;1.328;103.810;2023-02-08T03:18:23;32.00;99.90
31575;DHT22;18182;1.328;103.810;2023-02-08T03:23:37;31.90;99.90
31575;DHT22;18182;1.328;103.810;2023-02-08T03:28:49;31.90;99.90
31575;DHT22;18182;1.328;103.810;2023-02-08T03:33:51;32.10;99.90
31575;DHT22;18182;1.328;103.810;2023-02-08T03:36:29;32.10;99.90
31575;DHT22;18182;1.328;103.810;2023-02-08T03:38:57;32.10;99.90
31575;DHT22;18182;1.328;103.810;2023-02-08T03:41:26;32.10;99.90
31575;DHT22;18182;1.328;103.810;2023-02-08T03:43:58;32.20;99.90
31575;DHT22;18182;1.328;103.810;2023-02-08T03:46:32;32.20;99.90
31575;DHT22;18182;1.328;103.810;2023-02-08T03:49:06;32.30;99.90
31575;DHT22;18182;1.328;103.810;2023-02-08T03:51:34;32.30;99.90
31575;DHT22;18182;1.328;103.810;2023-02-08T03:54:02;32.30;99.90
31575;DHT22;18182;1.328;103.810;2023-02-08T03:59:03;32.10;99.90
31575;DHT22;18182;1.328;103.810;2023-02-08T04:01:32;31.90;99.90
31575;DHT22;18182;1.328;103.810;2023-02-08T04:04:01;31.80;99.90
31575;DHT22;18182;1.328;103.810;2023-02-08T04:06:27;32.00;99.90
31575;DHT22;18182;1.328;103.810;2023-02-08T04:08:54;32.10;99.90
31575;DHT22;18182;1.328;103.810;2023-02-08T04:11:20;32.10;99.90
31575;DHT22;18182;1.328;103.810;2023-02-08T04:13:46;32.10;99.90
31575;DHT22;18182;1.328;103.810;2023-02-08T04:16:13;32.00;99.90
31575;DHT22;18182;1.328;103.810;2023-02-08T04:18:39;32.00;99.90
31575;DHT22;18182;1.328;103.810;2023-02-08T04:21:05;32.00;99.90
31575;DHT22;18182;1.328;103.810;2023-02-08T04:23:31;31.90;99.90
31575;DHT22;18182;1.328;103.810;2023-02-08T04:25:57;31.90;99.90
31575;DHT22;18182;1.328;103.810;2023-02-08T04:28:23;31.90;99.90
31575;DHT22;18182;1.328;103.810;2023-02-08T04:30:49;31.90;99.90
31575;DHT22;18182;1.328;103.810;2023-02-08T04:33:15;31.90;99.90
31575;DHT22;18182;1.328;103.810;2023-02-08T04:35:42;32.00;99.90
31575;DHT22;18182;1.328;103.810;2023-02-08T04:38:08;32.00;99.90
31575;DHT22;18182;1.328;103.810;2023-02-08T04:40:34;32.10;99.90
31575;DHT22;18182;1.328;103.810;2023-02-08T04:43:00;32.00;99.90
31575;DHT22;18182;1.328;103.810;2023-02-08T04:45:27;32.10;99.90
31575;DHT22;18182;1.328;103.810;2023-02-08T04:47:56;32.20;99.90
31575;DHT22;18182;1.328;103.810;2023-02-08T04:50:22;32.20;99.90
31575;DHT22;18182;1.328;103.810;2023-02-08T04:52:49;32.20;99.90
31575;DHT22;18182;1.328;103.810;2023-02-08T04:55:15;32.20;99.90
31575;DHT22;18182;1.328;103.810;2023-02-08T04:57:41;32.20;99.90
31575;DHT22;18182;1.328;103.810;2023-02-08T05:00:07;32.10;99.90
31575;DHT22;18182;1.328;103.810;2023-02-08T05:02:34;32.10;99.90
31575;DHT22;18182;1.328;103.810;2023-02-08T05:05:00;32.10;99.90
31575;DHT22;18182;1.328;103.810;2023-02-08T05:07:26;32.10;99.90
31575;DHT22;18182;1.328;103.810;2023-02-08T05:09:52;32.00;99.90
31575;DHT22;18182;1.328;103.810;2023-02-08T05:12:18;32.00;99.90
31575;DHT22;18182;1.328;103.810;2023-02-08T05:14:44;32.00;99.90
31575;DHT22;18182;1.328;103.810;2023-02-08T05:17:10;32.00;99.90
31575;DHT22;18182;1.328;103.810;2023-02-08T05:19:36;31.90;99.90
31575;DHT22;18182;1.328;103.810;2023-02-08T05:22:02;31.80;99.90
31575;DHT22;18182;1.328;103.810;2023-02-08T05:24:29;31.80;99.90
31575;DHT22;18182;1.328;103.810;2023-02-08T05:26:55;31.90;99.90
31575;DHT22;18182;1.328;103.810;2023-02-08T05:29:21;31.90;99.90
31575;DHT22;18182;1.328;103.810;2023-02-08T05:31:47;31.70;99.90
31575;DHT22;18182;1.328;103.810;2023-02-08T05:34:13;31.60;99.90
31575;DHT22;18182;1.328;103.810;2023-02-08T05:36:39;31.50;99.90
31575;DHT22;18182;1.328;103.810;2023-02-08T05:39:05;31.40;99.90
31575;DHT22;18182;1.328;103.810;2023-02-08T05:41:32;31.30;99.90
31575;DHT22;18182;1.328;103.810;2023-02-08T05:43:58;31.20;99.90
31575;DHT22;18182;1.328;103.810;2023-02-08T05:46:24;31.20;99.90
31575;DHT22;18182;1.328;103.810;2023-02-08T05:48:50;31.20;99.90
31575;DHT22;18182;1.328;103.810;2023-02-08T05:51:16;31.30;99.90
31575;DHT22;18182;1.328;103.810;2023-02-08T05:53:42;31.30;99.90
31575;DHT22;18182;1.328;103.810;2023-02-08T05:56:09;31.40;99.90
31575;DHT22;18182;1.328;103.810;2023-02-08T05:58:36;31.40;99.90
31575;DHT22;18182;1.328;103.810;2023-02-08T06:01:06;31.60;99.90
31575;DHT22;18182;1.328;103.810;2023-02-08T06:03:32;31.80;99.90
31575;DHT22;18182;1.328;103.810;2023-02-08T06:05:59;31.80;99.90
31575;DHT22;18182;1.328;103.810;2023-02-08T06:08:26;31.70;99.90
31575;DHT22;18182;1.328;103.810;2023-02-08T06:10:52;31.80;99.90
31575;DHT22;18182;1.328;103.810;2023-02-08T06:13:18;31.80;99.90
31575;DHT22;18182;1.328;103.810;2023-02-08T06:15:45;31.90;99.90
31575;DHT22;18182;1.328;103.810;2023-02-08T06:18:11;31.90;99.90
31575;DHT22;18182;1.328;103.810;2023-02-08T06:20:37;32.00;99.90
31575;DHT22;18182;1.328;103.810;2023-02-08T06:23:03;32.10;99.90
31575;DHT22;18182;1.328;103.810;2023-02-08T06:25:30;32.10;99.90
31575;DHT22;18182;1.328;103.810;2023-02-08T06:27:56;32.10;99.90
31575;DHT22;18182;1.328;103.810;2023-02-08T06:30:22;31.90;99.90
31575;DHT22;18182;1.328;103.810;2023-02-08T06:32:48;31.80;99.90
31575;DHT22;18182;1.328;103.810;2023-02-08T06:35:14;31.80;99.90
31575;DHT22;18182;1.328;103.810;2023-02-08T06:37:41;31.70;99.90
31575;DHT22;18182;1.328;103.810;2023-02-08T06:40:07;31.60;99.90
31575;DHT22;18182;1.328;103.810;2023-02-08T06:42:33;31.60;99.90
31575;DHT22;18182;1.328;103.810;2023-02-08T06:44:59;31.50;99.90
31575;DHT22;18182;1.328;103.810;2023-02-08T06:47:27;31.60;99.90
31575;DHT22;18182;1.328;103.810;2023-02-08T06:49:53;31.70;99.90
31575;DHT22;18182;1.328;103.810;2023-02-08T06:52:19;31.90;99.90
31575;DHT22;18182;1.328;103.810;2023-02-08T06:54:46;31.90;99.90
31575;DHT22;18182;1.328;103.810;2023-02-08T06:57:12;31.90;99.90
31575;DHT22;18182;1.328;103.810;2023-02-08T06:59:38;31.90;99.90
31575;DHT22;18182;1.328;103.810;2023-02-08T07:02:05;31.80;99.90
31575;DHT22;18182;1.328;103.810;2023-02-08T07:04:31;31.80;99.90
31575;DHT22;18182;1.328;103.810;2023-02-08T07:06:57;31.80;99.90
31575;DHT22;18182;1.328;103.810;2023-02-08T07:09:23;31.80;99.90
31575;DHT22;18182;1.328;103.810;2023-02-08T07:11:49;31.70;99.90
31575;DHT22;18182;1.328;103.810;2023-02-08T07:14:15;31.60;99.90
31575;DHT22;18182;1.328;103.810;2023-02-08T07:16:41;31.60;99.90
31575;DHT22;18182;1.328;103.810;2023-02-08T07:19:07;31.50;99.90
31575;DHT22;18182;1.328;103.810;2023-02-08T07:21:33;31.60;99.90
31575;DHT22;18182;1.328;103.810;2023-02-08T07:24:00;31.70;99.90
31575;DHT22;18182;1.328;103.810;2023-02-08T07:26:26;31.70;99.90
31575;DHT22;18182;1.328;103.810;2023-02-08T07:28:52;31.60;99.90
31575;DHT22;18182;1.328;103.810;2023-02-08T07:31:18;31.60;99.90
31575;DHT22;18182;1.328;103.810;2023-02-08T07:33:44;31.40;99.90
31575;DHT22;18182;1.328;103.810;2023-02-08T07:36:10;31.30;99.90
31575;DHT22;18182;1.328;103.810;2023-02-08T07:38:37;31.20;99.90
31575;DHT22;18182;1.328;103.810;2023-02-08T07:41:05;31.10;99.90
31575;DHT22;18182;1.328;103.810;2023-02-08T07:43:32;31.00;99.90
31575;DHT22;18182;1.328;103.810;2023-02-08T07:46:03;30.90;99.90
31575;DHT22;18182;1.328;103.810;2023-02-08T07:48:29;30.90;99.90
31575;DHT22;18182;1.328;103.810;2023-02-08T07:50:55;30.90;99.90
31575;DHT22;18182;1.328;103.810;2023-02-08T07:53:21;31.00;99.90
31575;DHT22;18182;1.328;103.810;2023-02-08T07:55:48;31.00;99.90
31575;DHT22;18182;1.328;103.810;2023-02-08T07:58:14;31.00;99.90
31575;DHT22;18182;1.328;103.810;2023-02-08T08:00:40;31.10;99.90
31575;DHT22;18182;1.328;103.810;2023-02-08T08:03:06;31.10;99.90
31575;DHT22;18182;1.328;103.810;2023-02-08T08:05:32;31.00;99.90
31575;DHT22;18182;1.328;103.810;2023-02-08T08:07:59;30.90;99.90
31575;DHT22;18182;1.328;103.810;2023-02-08T08:10:25;30.80;99.90
31575;DHT22;18182;1.328;103.810;2023-02-08T08:12:51;30.80;99.90
31575;DHT22;18182;1.328;103.810;2023-02-08T08:15:17;30.70;99.90
31575;DHT22;18182;1.328;103.810;2023-02-08T08:17:43;30.50;99.90
31575;DHT22;18182;1.328;103.810;2023-02-08T08:20:09;30.20;99.90
31575;DHT22;18182;1.328;103.810;2023-02-08T08:22:36;30.10;99.90
31575;DHT22;18182;1.328;103.810;2023-02-08T08:25:02;30.00;99.90
31575;DHT22;18182;1.328;103.810;2023-02-08T08:27:28;30.00;99.90
31575;DHT22;18182;1.328;103.810;2023-02-08T08:29:54;30.00;99.90
31575;DHT22;18182;1.328;103.810;2023-02-08T08:32:20;29.90;99.90
31575;DHT22;18182;1.328;103.810;2023-02-08T08:34:47;29.90;99.90
31575;DHT22;18182;1.328;103.810;2023-02-08T08:37:13;29.90;99.90
31575;DHT22;18182;1.328;103.810;2023-02-08T08:39:39;29.90;99.90
31575;DHT22;18182;1.328;103.810;2023-02-08T08:42:05;29.80;99.90
31575;DHT22;18182;1.328;103.810;2023-02-08T08:44:31;29.70;99.90
31575;DHT22;18182;1.328;103.810;2023-02-08T08:46:58;29.70;99.90
31575;DHT22;18182;1.328;103.810;2023-02-08T08:49:25;29.60;99.90
31575;DHT22;18182;1.328;103.810;2023-02-08T08:51:51;29.50;99.90
31575;DHT22;18182;1.328;103.810;2023-02-08T08:54:18;29.50;99.90
31575;DHT22;18182;1.328;103.810;2023-02-08T08:56:44;29.50;99.90
31575;DHT22;18182;1.328;103.810;2023-02-08T08:59:10;29.30;99.90
31575;DHT22;18182;1.328;103.810;2023-02-08T09:01:37;29.10;99.90
31575;DHT22;18182;1.328;103.810;2023-02-08T09:04:03;28.90;99.90
31575;DHT22;18182;1.328;103.810;2023-02-08T09:06:30;28.70;99.90
31575;DHT22;18182;1.328;103.810;2023-02-08T09:08:56;28.50;99.90
31575;DHT22;18182;1.328;103.810;2023-02-08T09:11:22;28.40;99.90
31575;DHT22;18182;1.328;103.810;2023-02-08T09:13:48;28.40;99.90
31575;DHT22;18182;1.328;103.810;2023-02-08T09:16:34;28.40;99.90
31575;DHT22;18182;1.328;103.810;2023-02-08T09:19:01;28.30;99.90
31575;DHT22;18182;1.328;103.810;2023-02-08T09:21:28;28.20;99.90
31575;DHT22;18182;1.328;103.810;2023-02-08T09:23:54;28.10;99.90
31575;DHT22;18182;1.328;103.810;2023-02-08T09:26:21;28.00;99.90
31575;DHT22;18182;1.328;103.810;2023-02-08T09:28:47;28.00;99.90
31575;DHT22;18182;1.328;103.810;2023-02-08T09:31:23;27.90;99.90
31575;DHT22;18182;1.328;103.810;2023-02-08T09:33:50;28.00;99.90
31575;DHT22;18182;1.328;103.810;2023-02-08T09:36:17;28.20;99.90
31575;DHT22;18182;1.328;103.810;2023-02-08T09:38:44;28.30;99.90
31575;DHT22;18182;1.328;103.810;2023-02-08T09:41:14;28.30;99.90
31575;DHT22;18182;1.328;103.810;2023-02-08T09:43:45;28.40;99.90
31575;DHT22;18182;1.328;103.810;2023-02-08T09:46:19;28.50;99.90
31575;DHT22;18182;1.328;103.810;2023-02-08T09:48:45;28.60;99.90
31575;DHT22;18182;1.328;103.810;2023-02-08T09:54:07;28.40;99.90
31575;DHT22;18182;1.328;103.810;2023-02-08T09:56:34;28.30;99.90
31575;DHT22;18182;1.328;103.810;2023-02-08T09:59:05;28.30;99.90
31575;DHT22;18182;1.328;103.810;2023-02-08T10:01:33;28.20;99.90
31575;DHT22;18182;1.328;103.810;2023-02-08T10:06:44;28.20;99.90
31575;DHT22;18182;1.328;103.810;2023-02-08T10:09:11;28.20;99.90
31575;DHT22;18182;1.328;103.810;2023-02-08T10:16:53;28.10;99.90
31575;DHT22;18182;1.328;103.810;2023-02-08T10:25:13;28.20;99.90
31575;DHT22;18182;1.328;103.810;2023-02-08T10:35:22;28.50;99.90
31575;DHT22;18182;1.328;103.810;2023-02-08T10:37:49;28.50;99.90
31575;DHT22;18182;1.328;103.810;2023-02-08T10:40:33;28.60;99.90
31575;DHT22;18182;1.328;103.810;2023-02-08T10:45:31;28.60;99.90
31575;DHT22;18182;1.328;103.810;2023-02-08T10:48:02;28.60;99.90
31575;DHT22;18182;1.328;103.810;2023-02-08T10:53:01;28.60;99.90
31575;DHT22;18182;1.328;103.810;2023-02-08T10:55:29;28.60;99.90
31575;DHT22;18182;1.328;103.810;2023-02-08T10:57:59;28.60;99.90
31575;DHT22;18182;1.328;103.810;2023-02-08T11:00:26;28.60;99.90
31575;DHT22;18182;1.328;103.810;2023-02-08T11:02:53;28.60;99.90
31575;DHT22;18182;1.328;103.810;2023-02-08T11:05:30;28.60;99.90
31575;DHT22;18182;1.328;103.810;2023-02-08T11:08:04;28.60;99.90
31575;DHT22;18182;1.328;103.810;2023-02-08T11:10:31;28.60;99.90
31575;DHT22;18182;1.328;103.810;2023-02-08T11:12:58;28.60;99.90
31575;DHT22;18182;1.328;103.810;2023-02-08T11:15:46;28.60;99.90
31575;DHT22;18182;1.328;103.810;2023-02-08T11:18:18;28.70;99.90
31575;DHT22;18182;1.328;103.810;2023-02-08T11:20:46;28.70;99.90
31575;DHT22;18182;1.328;103.810;2023-02-08T11:23:20;28.70;99.90
31575;DHT22;18182;1.328;103.810;2023-02-08T11:25:47;28.70;99.90
31575;DHT22;18182;1.328;103.810;2023-02-08T11:28:21;28.70;99.90
31575;DHT22;18182;1.328;103.810;2023-02-08T11:31:01;28.70;99.90
31575;DHT22;18182;1.328;103.810;2023-02-08T11:33:30;28.70;99.90
31575;DHT22;18182;1.328;103.810;2023-02-08T11:38:22;28.70;99.90
31575;DHT22;18182;1.328;103.810;2023-02-08T11:40:53;28.60;99.90
31575;DHT22;18182;1.328;103.810;2023-02-08T11:43:22;28.60;99.90
31575;DHT22;18182;1.328;103.810;2023-02-08T11:45:49;28.60;99.90
31575;DHT22;18182;1.328;103.810;2023-02-08T11:48:22;28.60;99.90
31575;DHT22;18182;1.328;103.810;2023-02-08T11:50:52;28.60;99.90
31575;DHT22;18182;1.328;103.810;2023-02-08T11:53:32;28.60;99.90
31575;DHT22;18182;1.328;103.810;2023-02-08T11:58:39;28.60;99.90
31575;DHT22;18182;1.328;103.810;2023-02-08T12:01:18;28.50;99.90
31575;DHT22;18182;1.328;103.810;2023-02-08T12:03:45;28.50;99.90
31575;DHT22;18182;1.328;103.810;2023-02-08T12:06:17;28.50;99.90
31575;DHT22;18182;1.328;103.810;2023-02-08T12:13:57;28.50;99.90
31575;DHT22;18182;1.328;103.810;2023-02-08T12:16:35;28.50;99.90
31575;DHT22;18182;1.328;103.810;2023-02-08T12:22:07;28.50;99.90
31575;DHT22;18182;1.328;103.810;2023-02-08T12:24:48;28.50;99.90
31575;DHT22;18182;1.328;103.810;2023-02-08T12:30:02;28.50;99.90
31575;DHT22;18182;1.328;103.810;2023-02-08T12:35:36;28.50;99.90
31575;DHT22;18182;1.328;103.810;2023-02-08T12:46:18;28.40;99.90
31575;DHT22;18182;1.328;103.810;2023-02-08T12:54:02;28.40;99.90
31575;DHT22;18182;1.328;103.810;2023-02-08T12:56:31;28.40;99.90
31575;DHT22;18182;1.328;103.810;2023-02-08T12:59:00;28.40;99.90
31575;DHT22;18182;1.328;103.810;2023-02-08T13:01:31;28.40;99.90
31575;DHT22;18182;1.328;103.810;2023-02-08T13:06:42;28.30;99.90
31575;DHT22;18182;1.328;103.810;2023-02-08T13:12:07;28.40;99.90
31575;DHT22;18182;1.328;103.810;2023-02-08T13:14:42;28.40;99.90
31575;DHT22;18182;1.328;103.810;2023-02-08T13:17:18;28.40;99.90
31575;DHT22;18182;1.328;103.810;2023-02-08T13:19:53;28.40;99.90
31575;DHT22;18182;1.328;103.810;2023-02-08T13:22:21;28.50;99.90
31575;DHT22;18182;1.328;103.810;2023-02-08T13:24:47;28.40;99.90
31575;DHT22;18182;1.328;103.810;2023-02-08T13:27:21;28.50;99.90
31575;DHT22;18182;1.328;103.810;2023-02-08T13:29:48;28.50;99.90
31575;DHT22;18182;1.328;103.810;2023-02-08T13:32:17;28.50;99.90
31575;DHT22;18182;1.328;103.810;2023-02-08T13:34:52;28.50;99.90
31575;DHT22;18182;1.328;103.810;2023-02-08T13:37:21;28.50;99.90
31575;DHT22;18182;1.328;103.810;2023-02-08T13:39:47;28.50;99.90
31575;DHT22;18182;1.328;103.810;2023-02-08T13:44:55;28.50;99.90
31575;DHT22;18182;1.328;103.810;2023-02-08T13:47:26;28.50;99.90
31575;DHT22;18182;1.328;103.810;2023-02-08T13:58:00;28.50;99.90
31575;DHT22;18182;1.328;103.810;2023-02-08T14:00:27;28.50;99.90
31575;DHT22;18182;1.328;103.810;2023-02-08T14:03:36;28.50;99.90
31575;DHT22;18182;1.328;103.810;2023-02-08T14:05:53;28.50;99.90
31575;DHT22;18182;1.328;103.810;2023-02-08T14:14:19;28.50;99.90
31575;DHT22;18182;1.328;103.810;2023-02-08T14:16:31;28.50;99.90
31575;DHT22;18182;1.328;103.810;2023-02-08T14:19:01;28.40;99.90
31575;DHT22;18182;1.328;103.810;2023-02-08T14:21:35;28.50;99.90
31575;DHT22;18182;1.328;103.810;2023-02-08T14:24:03;28.40;99.90
31575;DHT22;18182;1.328;103.810;2023-02-08T14:26:30;28.50;99.90
31575;DHT22;18182;1.328;103.810;2023-02-08T14:29:00;28.40;99.90
31575;DHT22;18182;1.328;103.810;2023-02-08T14:31:36;28.40;99.90
31575;DHT22;18182;1.328;103.810;2023-02-08T14:34:05;28.40;99.90
31575;DHT22;18182;1.328;103.810;2023-02-08T14:36:34;28.40;99.90
31575;DHT22;18182;1.328;103.810;2023-02-08T14:39:20;28.30;99.90
31575;DHT22;18182;1.328;103.810;2023-02-08T14:46:58;28.30;99.90
31575;DHT22;18182;1.328;103.810;2023-02-08T14:49:24;28.30;99.90
31575;DHT22;18182;1.328;103.810;2023-02-08T14:51:55;28.40;99.90
31575;DHT22;18182;1.328;103.810;2023-02-08T14:54:26;28.30;99.90
31575;DHT22;18182;1.328;103.810;2023-02-08T14:56:58;28.30;99.90
31575;DHT22;18182;1.328;103.810;2023-02-08T14:59:29;28.30;99.90
31575;DHT22;18182;1.328;103.810;2023-02-08T15:01:57;28.30;99.90
31575;DHT22;18182;1.328;103.810;2023-02-08T15:04:24;28.30;99.90
31575;DHT22;18182;1.328;103.810;2023-02-08T15:09:27;28.20;99.90
31575;DHT22;18182;1.328;103.810;2023-02-08T15:14:39;28.30;99.90
31575;DHT22;18182;1.328;103.810;2023-02-08T15:17:05;28.30;99.90
31575;DHT22;18182;1.328;103.810;2023-02-08T15:19:32;28.30;99.90
31575;DHT22;18182;1.328;103.810;2023-02-08T15:22:16;28.30;99.90
31575;DHT22;18182;1.328;103.810;2023-02-08T15:24:52;28.30;99.90
31575;DHT22;18182;1.328;103.810;2023-02-08T15:27:21;28.30;99.90
31575;DHT22;18182;1.328;103.810;2023-02-08T15:29:47;28.30;99.90
31575;DHT22;18182;1.328;103.810;2023-02-08T15:32:15;28.30;99.90
31575;DHT22;18182;1.328;103.810;2023-02-08T15:34:42;28.30;99.90
31575;DHT22;18182;1.328;103.810;2023-02-08T15:37:15;28.30;99.90
31575;DHT22;18182;1.328;103.810;2023-02-08T15:39:42;28.30;99.90
31575;DHT22;18182;1.328;103.810;2023-02-08T15:42:25;28.30;99.90
31575;DHT22;18182;1.328;103.810;2023-02-08T15:44:52;28.20;99.90
31575;DHT22;18182;1.328;103.810;2023-02-08T15:49:47;28.20;99.90
31575;DHT22;18182;1.328;103.810;2023-02-08T15:52:16;28.20;99.90
31575;DHT22;18182;1.328;103.810;2023-02-08T15:54:43;28.30;99.90
31575;DHT22;18182;1.328;103.810;2023-02-08T15:59:42;28.30;99.90
31575;DHT22;18182;1.328;103.810;2023-02-08T16:02:28;28.20;99.90
31575;DHT22;18182;1.328;103.810;2023-02-08T16:04:56;28.20;99.90
31575;DHT22;18182;1.328;103.810;2023-02-08T16:09:48;28.20;99.90
31575;DHT22;18182;1.328;103.810;2023-02-08T16:12:18;28.20;99.90
31575;DHT22;18182;1.328;103.810;2023-02-08T16:14:45;28.20;99.90
31575;DHT22;18182;1.328;103.810;2023-02-08T16:19:55;28.20;99.90
31575;DHT22;18182;1.328;103.810;2023-02-08T16:24:47;28.20;99.90
31575;DHT22;18182;1.328;103.810;2023-02-08T16:27:19;28.20;99.90
31575;DHT22;18182;1.328;103.810;2023-02-08T16:29:49;28.20;99.90
31575;DHT22;18182;1.328;103.810;2023-02-08T16:32:28;28.30;99.90
31575;DHT22;18182;1.328;103.810;2023-02-08T16:34:54;28.30;99.90
31575;DHT22;18182;1.328;103.810;2023-02-08T16:37:24;28.20;99.90
31575;DHT22;18182;1.328;103.810;2023-02-08T16:42:37;28.20;99.90
31575;DHT22;18182;1.328;103.810;2023-02-08T16:45:13;28.20;99.90
31575;DHT22;18182;1.328;103.810;2023-02-08T16:47:41;28.20;99.90
31575;DHT22;18182;1.328;103.810;2023-02-08T16:50:09;28.20;99.90
31575;DHT22;18182;1.328;103.810;2023-02-08T16:52:36;28.20;99.90
31575;DHT22;18182;1.328;103.810;2023-02-08T16:55:02;28.20;99.90
31575;DHT22;18182;1.328;103.810;2023-02-08T17:00:17;28.20;99.90
31575;DHT22;18182;1.328;103.810;2023-02-08T17:02:44;28.10;99.90
31575;DHT22;18182;1.328;103.810;2023-02-08T17:05:10;28.10;99.90
31575;DHT22;18182;1.328;103.810;2023-02-08T17:07:37;28.10;99.90
31575;DHT22;18182;1.328;103.810;2023-02-08T17:10:06;28.10;99.90
31575;DHT22;18182;1.328;103.810;2023-02-08T17:12:33;28.10;99.90
31575;DHT22;18182;1.328;103.810;2023-02-08T17:14:59;28.00;99.90
31575;DHT22;18182;1.328;103.810;2023-02-08T17:17:25;28.10;99.90
31575;DHT22;18182;1.328;103.810;2023-02-08T17:19:52;28.00;99.90
31575;DHT22;18182;1.328;103.810;2023-02-08T17:22:18;28.00;99.90
31575;DHT22;18182;1.328;103.810;2023-02-08T17:24:44;28.10;99.90
31575;DHT22;18182;1.328;103.810;2023-02-08T17:27:11;28.10;99.90
31575;DHT22;18182;1.328;103.810;2023-02-08T17:29:38;28.10;99.90
31575;DHT22;18182;1.328;103.810;2023-02-08T17:32:05;28.10;99.90
31575;DHT22;18182;1.328;103.810;2023-02-08T17:34:31;28.10;99.90
31575;DHT22;18182;1.328;103.810;2023-02-08T17:36:57;28.10;99.90
31575;DHT22;18182;1.328;103.810;2023-02-08T17:39:24;28.10;99.90
31575;DHT22;18182;1.328;103.810;2023-02-08T17:41:51;28.10;99.90
31575;DHT22;18182;1.328;103.810;2023-02-08T17:44:17;28.10;99.90
31575;DHT22;18182;1.328;103.810;2023-02-08T17:46:43;28.10;99.90
31575;DHT22;18182;1.328;103.810;2023-02-08T17:49:10;28.10;99.90
31575;DHT22;18182;1.328;103.810;2023-02-08T17:51:36;28.20;99.90